createdAt,value
2022-09-13T00:01:47.130Z,3.20
2022-09-13T00:06:48.964Z,2.80
2022-09-13T00:11:51.712Z,3.05
2022-09-13T00:16:53.417Z,2.80
2022-09-13T00:21:55.111Z,3.27
2022-09-13T00:26:56.767Z,3.35
2022-09-13T00:31:58.489Z,3.00
2022-09-13T00:37:00.212Z,3.33
2022-09-13T00:42:02.809Z,3.27
2022-09-13T00:47:04.706Z,3.08
2022-09-13T00:52:13.767Z,2.40
2022-09-13T00:57:19.801Z,2.40
2022-09-13T01:02:21.807Z,2.47
2022-09-13T01:07:23.659Z,2.17
2022-09-13T01:12:45.200Z,2.35
2022-09-13T01:17:47.921Z,2.80
2022-09-13T01:23:01.330Z,2.67
2022-09-13T01:28:17.236Z,2.73
2022-09-13T01:34:13.903Z,3.03
2022-09-13T01:39:22.290Z,3.13
2022-09-13T01:44:39.028Z,3.33
2022-09-13T01:50:23.560Z,2.73
2022-09-13T01:55:40.298Z,3.85
2022-09-13T02:01:04.748Z,2.88
2022-09-13T02:06:11.869Z,3.38
2022-09-13T02:11:15.696Z,3.07
2022-09-13T02:16:40.965Z,3.40
2022-09-13T02:21:47.924Z,3.57
2022-09-13T02:26:51.957Z,3.17
2022-09-13T02:32:05.654Z,3.60
2022-09-13T02:37:09.624Z,3.23
2022-09-13T02:42:36.370Z,5.03
2022-09-13T02:47:41.079Z,4.93
2022-09-13T02:53:07.649Z,4.95
2022-09-13T02:58:45.536Z,4.27
2022-09-13T03:03:47.575Z,4.53
2022-09-13T03:08:49.354Z,4.60
2022-09-13T03:14:07.706Z,4.88
2022-09-13T03:19:15.652Z,3.40
2022-09-13T03:24:20.306Z,3.03
2022-09-13T03:29:21.947Z,2.70
2022-09-13T03:34:34.818Z,3.10
2022-09-13T03:39:59.896Z,2.58
2022-09-13T03:45:03.376Z,3.00
2022-09-13T03:50:08.540Z,2.90
2022-09-13T03:55:10.248Z,2.77
2022-09-13T04:00:14.213Z,2.78
2022-09-13T04:05:15.913Z,2.75
2022-09-13T04:10:17.645Z,2.88
2022-09-13T04:15:19.331Z,3.50
2022-09-13T04:20:21.422Z,3.85
2022-09-13T04:25:24.200Z,3.60
2022-09-13T04:30:28.459Z,3.40
2022-09-13T04:35:32.281Z,4.10
2022-09-13T04:40:36.077Z,3.67
2022-09-13T04:45:39.250Z,4.50
2022-09-13T04:50:41.966Z,3.90
2022-09-13T04:55:45.037Z,4.03
2022-09-13T05:00:49.055Z,4.13
2022-09-13T05:05:50.996Z,4.30
2022-09-13T05:10:53.677Z,4.90
2022-09-13T05:16:05.394Z,5.00
2022-09-13T05:21:08.413Z,5.47
2022-09-13T05:26:11.697Z,5.18
2022-09-13T05:31:25.281Z,5.50
2022-09-13T05:36:28.857Z,4.47
2022-09-13T05:41:32.863Z,4.72
2022-09-13T05:46:35.661Z,4.63
2022-09-13T05:51:40.291Z,4.78
2022-09-13T05:56:45.193Z,5.63
2022-09-13T06:01:48.027Z,5.00
2022-09-13T06:06:52.010Z,6.00
2022-09-13T06:11:54.828Z,6.07
2022-09-13T06:16:57.831Z,7.13
2022-09-13T06:22:00.800Z,7.67
2022-09-13T06:27:03.614Z,7.07
2022-09-13T06:32:06.753Z,6.70
2022-09-13T06:37:09.524Z,6.93
2022-09-13T06:42:12.427Z,7.63
2022-09-13T06:47:15.102Z,7.40
2022-09-13T06:52:17.972Z,7.07
2022-09-13T06:57:20.897Z,6.95
2022-09-13T07:02:23.878Z,7.83
2022-09-13T07:07:27.168Z,7.30
2022-09-13T07:12:30.574Z,6.80
2022-09-13T07:17:33.904Z,6.40
2022-09-13T07:22:36.505Z,6.60
2022-09-13T07:27:38.496Z,5.68
2022-09-13T07:32:40.376Z,5.63
2022-09-13T07:37:42.420Z,5.72
2022-09-13T07:42:44.126Z,6.25
2022-09-13T07:47:46.964Z,5.50
2022-09-13T07:52:48.679Z,4.47
2022-09-13T07:57:50.400Z,5.20
2022-09-13T08:02:52.110Z,5.93
2022-09-13T08:07:53.773Z,5.87
2022-09-13T08:12:55.690Z,5.32
2022-09-13T08:17:57.340Z,5.00
2022-09-13T08:22:59.006Z,5.10
2022-09-13T08:28:01.844Z,4.63
2022-09-13T08:33:06.907Z,5.68
2022-09-13T08:38:08.733Z,5.28
2022-09-13T08:43:37.083Z,4.75
2022-09-13T08:48:44.980Z,4.13
2022-09-13T08:53:49.091Z,4.68
2022-09-13T08:59:16.507Z,4.20
2022-09-13T09:04:27.048Z,4.20
2022-09-13T09:09:35.503Z,4.10
2022-09-13T09:14:42.472Z,3.72
2022-09-13T09:19:48.757Z,3.20
2022-09-13T09:24:58.068Z,4.18
2022-09-13T09:30:00.769Z,4.10
2022-09-13T09:35:11.633Z,5.13
2022-09-13T09:40:14.466Z,4.27
2022-09-13T09:45:32.155Z,3.70
2022-09-13T09:50:38.694Z,3.00
2022-09-13T09:55:51.491Z,2.35
2022-09-13T10:00:57.849Z,3.55
2022-09-13T10:06:12.638Z,3.92
2022-09-13T10:11:15.072Z,3.78
2022-09-13T10:16:31.452Z,3.75
2022-09-13T10:21:33.164Z,3.63
2022-09-13T10:26:35.015Z,3.58
2022-09-13T10:31:42.739Z,3.33
2022-09-13T10:36:54.385Z,3.67
2022-09-13T10:42:06.407Z,3.78
2022-09-13T10:47:18.635Z,4.00
2022-09-13T10:52:35.279Z,4.17
2022-09-13T10:57:37.552Z,4.43
2022-09-13T11:02:44.855Z,4.13
2022-09-13T11:07:55.528Z,4.00
2022-09-13T11:13:24.629Z,4.00
2022-09-13T11:18:48.082Z,4.65
2022-09-13T11:24:45.413Z,5.13
2022-09-13T11:30:14.417Z,4.57
2022-09-13T11:35:34.465Z,4.22
2022-09-13T11:40:48.940Z,4.32
2022-09-13T11:46:05.315Z,4.07
2022-09-13T11:51:27.167Z,4.75
2022-09-13T11:56:37.498Z,4.30
2022-09-13T12:01:44.715Z,4.38
2022-09-13T12:06:58.235Z,3.80
2022-09-13T12:12:10.004Z,4.72
2022-09-13T12:17:46.817Z,3.78
2022-09-13T12:22:51.064Z,3.40
2022-09-13T12:28:06.069Z,1.90
2022-09-13T12:33:08.306Z,2.10
2022-09-13T12:38:21.816Z,2.27
2022-09-13T12:43:47.933Z,2.40
2022-09-13T12:49:20.151Z,2.20
2022-09-13T12:55:19.610Z,2.30
2022-09-13T13:01:04.670Z,1.77
2022-09-13T13:06:35.412Z,2.05
2022-09-13T13:11:48.672Z,1.92
2022-09-13T13:16:50.398Z,1.90
2022-09-13T13:21:52.267Z,2.00
2022-09-13T13:26:58.429Z,2.08
2022-09-13T13:32:00.092Z,1.50
2022-09-13T13:37:07.996Z,1.98
2022-09-13T13:42:29.947Z,1.57
2022-09-13T13:47:31.578Z,1.60
2022-09-13T13:52:50.887Z,1.95
2022-09-13T13:58:10.292Z,1.17
2022-09-13T14:03:22.263Z,2.00
2022-09-13T14:08:29.786Z,1.45
2022-09-13T14:13:43.394Z,1.83
2022-09-13T14:18:54.272Z,1.37
2022-09-13T14:24:28.614Z,1.50
2022-09-13T14:29:30.683Z,1.70
2022-09-13T14:34:35.825Z,2.00
2022-09-13T14:39:37.542Z,2.10
2022-09-13T14:44:44.428Z,1.75
2022-09-13T14:50:08.772Z,1.50
2022-09-13T14:55:18.051Z,1.77
2022-09-13T15:00:22.755Z,1.83
2022-09-13T15:05:27.308Z,1.57
2022-09-13T15:10:33.270Z,1.75
2022-09-13T15:15:39.646Z,1.60
2022-09-13T15:20:46.327Z,1.50
2022-09-13T15:25:51.853Z,1.33
2022-09-13T15:30:55.526Z,1.30
2022-09-13T15:36:19.631Z,2.00
2022-09-13T15:41:21.505Z,1.77
2022-09-13T15:46:23.275Z,2.00
2022-09-13T15:51:25.620Z,1.33
2022-09-13T15:56:34.925Z,1.80
2022-09-13T16:01:36.673Z,2.33
2022-09-13T16:06:39.184Z,2.60
2022-09-13T16:11:40.840Z,2.38
2022-09-13T16:16:43.180Z,1.83
2022-09-13T16:21:45.418Z,1.85
2022-09-13T16:26:47.079Z,1.83
2022-09-13T16:31:48.826Z,2.15
2022-09-13T16:36:50.674Z,2.25
2022-09-13T16:41:52.389Z,2.10
2022-09-13T16:46:54.184Z,2.13
2022-09-13T16:51:56.002Z,3.30
2022-09-13T16:56:58.163Z,2.37
2022-09-13T17:01:59.923Z,3.00
2022-09-13T17:07:01.848Z,3.17
2022-09-13T17:12:03.887Z,2.70
2022-09-13T17:17:05.629Z,2.90
2022-09-13T17:22:07.403Z,3.27
2022-09-13T17:27:09.158Z,2.72
2022-09-13T17:32:10.806Z,2.90
2022-09-13T17:37:12.789Z,2.63
2022-09-13T17:42:14.656Z,3.22
2022-09-13T17:47:16.356Z,3.17
2022-09-13T17:52:18.116Z,3.67
2022-09-13T17:57:20.024Z,3.83
2022-09-13T18:02:22.297Z,3.88
2022-09-13T18:07:24.041Z,8.63
2022-09-13T18:12:25.693Z,4.55
2022-09-13T18:17:27.407Z,4.33
2022-09-13T18:22:29.100Z,3.97
2022-09-13T18:27:31.103Z,4.30
2022-09-13T18:32:32.959Z,4.03
2022-09-13T18:37:34.687Z,3.53
2022-09-13T18:42:36.370Z,4.18
2022-09-13T18:47:38.045Z,4.00
2022-09-13T18:52:39.846Z,3.60
2022-09-13T18:57:41.537Z,4.47
2022-09-13T19:03:02.078Z,4.57
2022-09-13T19:08:09.364Z,4.57
2022-09-13T19:13:11.036Z,3.88
2022-09-13T19:18:12.725Z,4.63
2022-09-13T19:23:14.436Z,7.00
2022-09-13T19:28:16.241Z,6.57
2022-09-13T19:33:18.018Z,4.68
2022-09-13T19:38:19.733Z,4.37
2022-09-13T19:43:21.392Z,4.22
2022-09-13T19:48:38.129Z,5.25
2022-09-13T19:53:56.549Z,6.03
2022-09-13T19:59:05.938Z,6.87
2022-09-13T20:04:19.850Z,6.20
2022-09-13T20:09:21.664Z,6.38
2022-09-13T20:14:23.325Z,6.30
2022-09-13T20:19:44.876Z,6.68
2022-09-13T20:24:46.812Z,6.28
2022-09-13T20:29:48.515Z,6.90
2022-09-13T20:34:50.219Z,5.95
2022-09-13T20:39:51.968Z,6.47
2022-09-13T20:44:53.648Z,5.93
2022-09-13T20:49:55.340Z,6.22
2022-09-13T20:54:57.396Z,5.45
2022-09-13T20:59:59.088Z,5.50
2022-09-13T21:05:00.915Z,5.95
2022-09-13T21:10:02.638Z,5.05
2022-09-13T21:15:04.896Z,5.22
2022-09-13T21:20:06.806Z,5.18
2022-09-13T21:25:08.997Z,5.65
2022-09-13T21:30:10.964Z,4.85
2022-09-13T21:35:12.706Z,4.82
2022-09-13T21:40:14.622Z,7.30
2022-09-13T21:45:16.464Z,7.03
2022-09-13T21:50:18.128Z,7.53
2022-09-13T21:55:19.796Z,7.38
2022-09-13T22:00:21.500Z,7.18
2022-09-13T22:05:23.202Z,8.40
2022-09-13T22:10:24.982Z,8.18
2022-09-13T22:15:26.728Z,8.93
2022-09-13T22:20:28.376Z,7.70
2022-09-13T22:25:30.080Z,9.35
2022-09-13T22:30:34.020Z,7.28
2022-09-13T22:35:35.729Z,8.18
2022-09-13T22:40:37.396Z,8.10
2022-09-13T22:45:39.075Z,8.37
2022-09-13T22:50:40.744Z,7.35
2022-09-13T22:55:42.426Z,7.32
2022-09-13T23:00:45.319Z,6.27
2022-09-13T23:05:50.694Z,6.88
2022-09-13T23:10:52.393Z,6.70
2022-09-13T23:15:54.079Z,6.70
2022-09-13T23:20:56.328Z,6.88
2022-09-13T23:26:10.179Z,6.90
2022-09-13T23:31:14.802Z,6.88
2022-09-13T23:36:20.035Z,6.60
2022-09-13T23:41:22.862Z,7.40
2022-09-13T23:46:24.560Z,6.32
2022-09-13T23:51:26.907Z,6.80
2022-09-13T23:56:30.568Z,7.07
